Observations for Trim Patrick St
| Time | AQI | Temp °C | Hum % | Pres Pa | CO μg/m³ | H₂S μg/m³ | NO μg/m³ | NO₂ μg/m³ | O₃ μg/m³ | SO₂ μg/m³ | PM1 μg/m³ | PM2.5 μg/m³ | PM10 μg/m³ |
|---|---|---|---|---|---|---|---|---|---|---|---|---|---|
| Monday 3 August 2026 | |||||||||||||
| 03:44 | 1 | 15.4 | 79 | 38,460 | 0.21 | 0 | 1.93 | 14.19 | 20.72 | 0 | 5.43 | 8.79 | 9.67 |
| 03:40 | 1 | 15.3 | 79 | 38,460 | 0.21 | 0 | 1.92 | 12.34 | 32.98 | 0 | 4.57 | 7.38 | 8.12 |
| 03:39 | 1 | 15.3 | 79 | 38,460 | 0.21 | 0 | 1.92 | 13.41 | 43.96 | 0 | 5.43 | 8.07 | 8.88 |
| 03:37 | 1 | 15.3 | 80 | 38,460 | 0.21 | 0 | 1.91 | 12.21 | 43.46 | 0 | 6.29 | 8.76 | 9.63 |
| 03:34 | 1 | 15.3 | 80 | 38,460 | 0.21 | 0 | 1.93 | 10.57 | 35.02 | 0 | 3.71 | 9.45 | 10.4 |
| 03:33 | 1 | 15.3 | 80 | 38,460 | 0.21 | 0 | 1.95 | 18.01 | 41.75 | 0 | 4.57 | 8.74 | 9.62 |
| 03:32 | 1 | 15.3 | 80 | 38,460 | 0.22 | 0 | 1.94 | 9.95 | 33.65 | 0 | 4.57 | 8.04 | 8.85 |
| 03:31 | 1 | 15.3 | 80 | 38,460 | 0.2 | 0 | 1.94 | 11.63 | 31.41 | 0 | 3.71 | 8.04 | 8.84 |
| 03:30 | 1 | 15.3 | 80 | 38,460 | 0.21 | 0 | 1.97 | 11.47 | 35.63 | 0 | 3.71 | 6.63 | 7.3 |
| 03:29 | 1 | 15.3 | 80 | 38,460 | 0.21 | 0 | 1.96 | 14.5 | 25.55 | 0 | 5.43 | 8.72 | 9.59 |
| 03:28 | 1 | 15.3 | 80 | 38,460 | 0.22 | 0 | 1.95 | 14.74 | 36.49 | 0 | 6.29 | 8.71 | 9.58 |
| 03:27 | 1 | 15.3 | 80 | 38,460 | 0.21 | 0 | 1.94 | 13.07 | 25.92 | 0 | 5.43 | 8.01 | 8.81 |
| 03:26 | 1 | 15.3 | 80 | 38,460 | 0.22 | 0 | 1.94 | 12.94 | 28.24 | 0 | 5.43 | 8.71 | 9.58 |
| 03:25 | 1 | 15.3 | 80 | 38,460 | 0.21 | 0 | 1.93 | 11.51 | 27.98 | 0 | 4.57 | 8 | 8.8 |
| 03:24 | 1 | 15.2 | 80 | 38,460 | 0.22 | 0 | 1.93 | 12.28 | 38.25 | 0 | 5.43 | 9.39 | 10.33 |
| 03:23 | 1 | 15.2 | 80 | 38,460 | 0.22 | 0 | 1.93 | 19.97 | 38.61 | 0 | 5.43 | 9.38 | 10.32 |
| 03:22 | 1 | 15.2 | 80 | 38,460 | 0.22 | 0 | 1.95 | 12.41 | 24.35 | 0 | 5.43 | 8.69 | 9.56 |
| 03:21 | 1 | 15.2 | 80 | 38,460 | 0.21 | 0 | 1.97 | 10.48 | 29.46 | 0 | 5.43 | 10.08 | 11.09 |
| 03:20 | 1 | 15.2 | 81 | 38,460 | 0.21 | 0 | 2.03 | 11.24 | 34.17 | 0 | 4.57 | 7.98 | 8.77 |
| 03:19 | 1 | 15.2 | 81 | 38,460 | 0.24 | 0 | 1.98 | 13.1 | 32.58 | 0 | 5.43 | 9.36 | 10.29 |